Terminal Aerodrome Forecast
Issued by NWS Wilmington, NC

Home | Current Version | Previous Version | Text Only | Print | Product List | Glossary On
Versions: 1 2 3 4 5 6 7 8 9 10 11 12 13 14 15 16 17 18 19 20 21 22 23 24 25 26 27 28 29 30 31 32
000
FTUS42 KILM 250824 AAA
TAFFLO
TAF AMD
KFLO 250824Z 2508/2606 22008KT P6SM BKN050
     FM251700 24010G18KT P6SM SCT045 PROB30 2517/2518 4SM -TSRA
      BKN045CB
     FM251800 24010G16KT P6SM BKN045 PROB30 2518/2520 4SM -TSRA
      OVC015CB
     FM260300 24009KT P6SM FEW250=

USA.gov is the U.S. government's official web portal to all federal, state and local government web resources and services.